createdAt,value
2023-02-09T00:04:57.016Z,3.85
2023-02-09T00:09:59.895Z,4.18
2023-02-09T00:15:02.930Z,4.57
2023-02-09T00:20:09.564Z,4.10
2023-02-09T00:25:12.392Z,4.30
2023-02-09T00:30:15.516Z,4.63
2023-02-09T00:35:20.457Z,4.55
2023-02-09T00:40:23.401Z,4.35
2023-02-09T00:45:26.731Z,4.45
2023-02-09T00:50:31.761Z,4.35
2023-02-09T00:55:34.667Z,4.00
2023-02-09T01:00:37.548Z,4.50
2023-02-09T01:05:42.362Z,4.78
2023-02-09T01:10:45.610Z,4.32
2023-02-09T01:15:48.555Z,4.80
2023-02-09T01:20:52.715Z,4.05
2023-02-09T01:26:02.628Z,4.05
2023-02-09T01:31:06.588Z,4.32
2023-02-09T01:36:11.274Z,4.07
2023-02-09T01:41:14.565Z,4.35
2023-02-09T01:46:17.658Z,4.18
2023-02-09T01:51:22.105Z,3.85
2023-02-09T01:56:29.720Z,4.30
2023-02-09T02:01:32.730Z,4.28
2023-02-09T02:06:37.961Z,4.68
2023-02-09T02:11:42.052Z,4.22
2023-02-09T02:16:54.235Z,4.30
2023-02-09T02:22:36.305Z,4.20
2023-02-09T02:27:47.512Z,4.10
2023-02-09T02:33:18.378Z,4.05
2023-02-09T02:38:25.695Z,4.00
2023-02-09T02:43:41.620Z,4.35
2023-02-09T02:48:52.538Z,4.63
2023-02-09T02:53:58.915Z,4.47
2023-02-09T02:59:05.273Z,4.30
2023-02-09T03:04:10.583Z,4.18
2023-02-09T03:09:13.538Z,4.20
2023-02-09T03:14:33.483Z,4.25
2023-02-09T03:19:44.503Z,4.70
2023-02-09T03:24:54.430Z,4.35
2023-02-09T03:30:00.934Z,3.97
2023-02-09T03:35:06.222Z,4.13
2023-02-09T03:40:09.959Z,4.47
2023-02-09T03:45:12.877Z,4.00
2023-02-09T03:50:17.546Z,3.90
2023-02-09T03:55:20.407Z,4.15
2023-02-09T04:00:23.396Z,4.53
2023-02-09T04:05:27.635Z,4.07
2023-02-09T04:10:30.459Z,4.45
2023-02-09T04:15:33.333Z,4.57
2023-02-09T04:20:37.489Z,4.18
2023-02-09T04:25:40.396Z,4.60
2023-02-09T04:30:43.832Z,3.88
2023-02-09T04:35:48.945Z,4.60
2023-02-09T04:40:53.820Z,4.30
2023-02-09T04:45:56.711Z,4.35
2023-02-09T04:51:00.954Z,4.30
2023-02-09T04:56:03.988Z,4.50
2023-02-09T05:01:08.168Z,4.70
2023-02-09T05:06:12.705Z,4.55
2023-02-09T05:11:16.011Z,4.43
2023-02-09T05:16:19.029Z,4.20
2023-02-09T05:21:23.408Z,4.60
2023-02-09T05:26:26.370Z,4.28
2023-02-09T05:31:29.423Z,4.13
2023-02-09T05:36:33.662Z,4.00
2023-02-09T05:41:54.132Z,4.40
2023-02-09T05:46:57.579Z,4.35
2023-02-09T05:52:01.980Z,4.97
2023-02-09T05:57:05.485Z,4.30
2023-02-09T06:02:08.540Z,4.55
2023-02-09T06:07:12.742Z,4.30
2023-02-09T06:12:15.589Z,4.03
2023-02-09T06:17:18.450Z,4.70
2023-02-09T06:22:22.720Z,4.63
2023-02-09T06:27:25.584Z,4.07
2023-02-09T06:32:28.479Z,4.22
2023-02-09T06:37:32.692Z,4.10
2023-02-09T06:42:44.571Z,4.47
2023-02-09T06:47:47.657Z,4.10
2023-02-09T06:52:51.905Z,5.43
2023-02-09T06:57:55.201Z,5.10
2023-02-09T07:02:59.000Z,4.90
2023-02-09T07:08:03.661Z,4.93
2023-02-09T07:13:06.523Z,6.95
2023-02-09T07:18:09.316Z,5.32
2023-02-09T07:23:13.480Z,5.32
2023-02-09T07:28:16.761Z,5.00
2023-02-09T07:33:19.632Z,5.28
2023-02-09T07:38:23.818Z,6.38
2023-02-09T07:43:26.730Z,10.10
2023-02-09T07:48:29.865Z,9.27
2023-02-09T07:53:34.782Z,8.45
2023-02-09T07:58:37.677Z,7.45
2023-02-09T08:03:41.663Z,8.57
2023-02-09T08:08:46.343Z,8.23
2023-02-09T08:13:50.833Z,7.70
2023-02-09T08:18:59.247Z,7.07
2023-02-09T08:24:05.502Z,6.80
2023-02-09T08:29:09.440Z,6.88
2023-02-09T08:34:12.304Z,6.03
2023-02-09T08:39:16.442Z,6.07
2023-02-09T08:44:19.279Z,5.70
2023-02-09T08:49:22.094Z,5.75
2023-02-09T08:54:26.926Z,5.63
2023-02-09T08:59:30.173Z,5.57
2023-02-09T09:04:33.101Z,4.95
2023-02-09T09:09:37.367Z,5.38
2023-02-09T09:14:40.485Z,5.03
2023-02-09T09:19:43.703Z,5.00
2023-02-09T09:24:47.854Z,5.22
2023-02-09T09:29:51.240Z,4.93
2023-02-09T09:34:54.916Z,4.82
2023-02-09T09:40:00.164Z,4.97
2023-02-09T09:45:05.066Z,4.25
2023-02-09T09:50:17.131Z,5.07
2023-02-09T09:55:25.047Z,4.45
2023-02-09T10:00:33.016Z,4.82
2023-02-09T10:05:40.363Z,5.03
2023-02-09T10:10:48.801Z,4.20
2023-02-09T10:15:53.488Z,4.85
2023-02-09T10:21:02.067Z,4.63
2023-02-09T10:26:19.092Z,5.18
2023-02-09T10:31:27.625Z,4.70
2023-02-09T10:36:34.176Z,5.18
2023-02-09T10:41:40.432Z,4.30
2023-02-09T10:46:43.373Z,3.75
2023-02-09T10:51:46.217Z,4.50
2023-02-09T10:56:50.863Z,4.07
2023-02-09T11:01:57.802Z,3.60
2023-02-09T11:07:03.645Z,3.70
2023-02-09T11:12:12.043Z,3.67
2023-02-09T11:17:21.746Z,3.67
2023-02-09T11:22:40.594Z,4.00
2023-02-09T11:27:58.804Z,3.97
2023-02-09T11:33:07.665Z,3.72
2023-02-09T11:38:15.980Z,3.63
2023-02-09T11:43:26.442Z,3.40
2023-02-09T11:48:31.449Z,3.50
2023-02-09T11:53:43.543Z,3.53
2023-02-09T11:58:54.791Z,3.30
2023-02-09T12:04:04.961Z,4.38
2023-02-09T12:09:36.701Z,3.25
2023-02-09T12:14:57.903Z,3.85
2023-02-09T12:20:02.891Z,3.95
2023-02-09T12:25:18.464Z,3.70
2023-02-09T12:31:03.384Z,3.50
2023-02-09T12:36:28.115Z,3.30
2023-02-09T12:41:33.025Z,3.50
2023-02-09T12:46:53.453Z,3.13
2023-02-09T12:52:14.831Z,2.95
2023-02-09T12:57:54.150Z,3.10
2023-02-09T13:03:12.921Z,3.30
2023-02-09T13:08:25.114Z,3.15
2023-02-09T13:13:36.554Z,3.20
2023-02-09T13:18:49.349Z,2.90
2023-02-09T13:24:01.509Z,3.10
2023-02-09T13:29:19.672Z,2.72
2023-02-09T13:34:32.194Z,3.22
2023-02-09T13:39:38.483Z,3.45
2023-02-09T13:44:45.261Z,2.67
2023-02-09T13:50:00.803Z,3.10
2023-02-09T13:55:12.839Z,2.72
2023-02-09T14:00:25.267Z,2.58
2023-02-09T14:05:37.615Z,2.50
2023-02-09T14:10:44.040Z,2.22
2023-02-09T14:16:07.724Z,2.60
2023-02-09T14:21:24.204Z,3.00
2023-02-09T14:26:29.098Z,2.75
2023-02-09T14:31:35.417Z,2.67
2023-02-09T14:36:39.687Z,2.67
2023-02-09T14:41:42.566Z,2.38
2023-02-09T14:46:53.054Z,2.60
2023-02-09T14:52:07.060Z,2.60
2023-02-09T14:57:13.291Z,2.85
2023-02-09T15:02:19.182Z,2.25
2023-02-09T15:07:28.088Z,2.58
2023-02-09T15:12:31.155Z,2.35
2023-02-09T15:17:33.963Z,2.55
2023-02-09T15:22:38.227Z,2.55
2023-02-09T15:27:51.292Z,2.53
2023-02-09T15:32:54.982Z,2.83
2023-02-09T15:38:01.121Z,2.60
2023-02-09T15:43:26.319Z,2.45
2023-02-09T15:48:29.184Z,2.47
2023-02-09T15:53:33.382Z,2.53
2023-02-09T15:58:38.911Z,2.30
2023-02-09T16:03:41.892Z,10.15
2023-02-09T16:08:47.653Z,4.10
2023-02-09T16:13:51.346Z,3.90
2023-02-09T16:18:54.183Z,3.88
2023-02-09T16:24:02.782Z,3.70
2023-02-09T16:29:09.841Z,3.40
2023-02-09T16:34:15.429Z,3.22
2023-02-09T16:39:22.401Z,3.50
2023-02-09T16:44:27.065Z,3.20
2023-02-09T16:49:36.402Z,3.45
2023-02-09T16:54:44.458Z,3.97
2023-02-09T16:59:47.596Z,3.65
2023-02-09T17:04:50.505Z,3.90
2023-02-09T17:09:55.941Z,3.60
2023-02-09T17:14:58.800Z,3.70
2023-02-09T17:20:01.706Z,4.40
2023-02-09T17:25:06.774Z,4.50
2023-02-09T17:30:11.954Z,4.22
2023-02-09T17:35:16.655Z,4.07
2023-02-09T17:40:23.070Z,4.65
2023-02-09T17:45:28.273Z,4.05
2023-02-09T17:50:31.212Z,3.78
2023-02-09T17:55:35.513Z,3.88
2023-02-09T18:00:39.141Z,4.05
2023-02-09T18:05:42.114Z,3.63
2023-02-09T18:10:46.332Z,5.50
2023-02-09T18:15:51.587Z,4.55
2023-02-09T18:20:54.520Z,6.65
2023-02-09T18:25:58.751Z,7.95
2023-02-09T18:31:01.757Z,6.22
2023-02-09T18:36:05.161Z,5.45
2023-02-09T18:41:11.230Z,4.55
2023-02-09T18:46:15.215Z,4.78
2023-02-09T18:51:18.318Z,4.90
2023-02-09T18:56:24.485Z,5.00
2023-02-09T19:01:27.394Z,4.55
2023-02-09T19:06:32.586Z,4.18
2023-02-09T19:11:36.821Z,4.13
2023-02-09T19:16:41.023Z,4.20
2023-02-09T19:21:43.958Z,4.45
2023-02-09T19:26:48.234Z,4.10
2023-02-09T19:31:51.130Z,3.20
2023-02-09T19:36:53.985Z,3.95
2023-02-09T19:41:58.269Z,3.80
2023-02-09T19:47:01.357Z,3.97
2023-02-09T19:52:04.364Z,4.20
2023-02-09T19:57:08.601Z,3.70
2023-02-09T20:02:13.041Z,3.90
2023-02-09T20:07:15.891Z,3.33
2023-02-09T20:12:21.591Z,4.00
2023-02-09T20:17:25.026Z,3.38
2023-02-09T20:22:27.933Z,3.15
2023-02-09T20:27:32.287Z,3.60
2023-02-09T20:32:36.476Z,3.40
2023-02-09T20:37:39.434Z,3.88
2023-02-09T20:43:01.341Z,3.53
2023-02-09T20:48:05.996Z,3.72
2023-02-09T20:53:08.797Z,3.85
2023-02-09T20:58:13.724Z,3.58
2023-02-09T21:03:16.705Z,3.10
2023-02-09T21:08:20.800Z,3.42
2023-02-09T21:13:25.942Z,3.15
2023-02-09T21:18:28.863Z,3.67
2023-02-09T21:23:31.708Z,3.30
2023-02-09T21:28:36.474Z,3.60
2023-02-09T21:33:40.661Z,3.75
2023-02-09T21:38:43.586Z,3.28
2023-02-09T21:43:48.390Z,3.50
2023-02-09T21:48:51.388Z,4.03
2023-02-09T21:53:54.279Z,3.90
2023-02-09T21:58:58.519Z,3.40
2023-02-09T22:04:01.886Z,3.42
2023-02-09T22:09:06.330Z,3.53
2023-02-09T22:14:10.582Z,3.80
2023-02-09T22:19:13.418Z,4.00
2023-02-09T22:24:17.347Z,4.15
2023-02-09T22:29:21.531Z,5.13
2023-02-09T22:34:24.353Z,4.25
2023-02-09T22:39:27.308Z,4.15
2023-02-09T22:44:32.143Z,3.70
2023-02-09T22:49:34.950Z,4.18
2023-02-09T22:54:37.896Z,4.05
2023-02-09T22:59:42.066Z,4.38
2023-02-09T23:04:44.911Z,4.32
2023-02-09T23:09:47.800Z,4.50
2023-02-09T23:14:53.488Z,4.10
2023-02-09T23:19:57.504Z,4.03
2023-02-09T23:25:01.735Z,4.18
2023-02-09T23:30:06.598Z,4.22
2023-02-09T23:35:09.676Z,3.75
2023-02-09T23:40:13.090Z,3.67
2023-02-09T23:45:17.503Z,4.13
2023-02-09T23:50:20.407Z,4.28
2023-02-09T23:55:23.277Z,4.22
